sensor_id;sensor_type;location;lat;lon;timestamp;temperature;humidity
59075;DHT22;44860;53.020;6.738;2022-09-09T00:06:35;15.10;99.90
59075;DHT22;44860;53.020;6.738;2022-09-09T00:09:12;15.10;99.90
59075;DHT22;44860;53.020;6.738;2022-09-09T00:12:05;15.00;99.90
59075;DHT22;44860;53.020;6.738;2022-09-09T00:15:05;15.00;99.90
59075;DHT22;44860;53.020;6.738;2022-09-09T00:17:39;15.00;99.90
59075;DHT22;44860;53.020;6.738;2022-09-09T00:20:18;15.00;99.90
59075;DHT22;44860;53.020;6.738;2022-09-09T00:22:54;15.00;99.90
59075;DHT22;44860;53.020;6.738;2022-09-09T00:25:29;14.90;99.90
59075;DHT22;44860;53.020;6.738;2022-09-09T00:27:59;14.90;99.90
59075;DHT22;44860;53.020;6.738;2022-09-09T00:30:27;14.90;99.90
59075;DHT22;44860;53.020;6.738;2022-09-09T00:33:03;14.90;99.90
59075;DHT22;44860;53.020;6.738;2022-09-09T00:35:36;14.90;99.90
59075;DHT22;44860;53.020;6.738;2022-09-09T00:38:13;14.80;99.90
59075;DHT22;44860;53.020;6.738;2022-09-09T00:40:53;14.80;99.90
59075;DHT22;44860;53.020;6.738;2022-09-09T00:43:29;14.80;99.90
59075;DHT22;44860;53.020;6.738;2022-09-09T00:57:57;14.80;99.90
59075;DHT22;44860;53.020;6.738;2022-09-09T01:05:36;14.70;99.90
59075;DHT22;44860;53.020;6.738;2022-09-09T01:08:16;14.70;99.90
59075;DHT22;44860;53.020;6.738;2022-09-09T01:10:51;14.70;99.90
59075;DHT22;44860;53.020;6.738;2022-09-09T01:13:27;14.70;99.90
59075;DHT22;44860;53.020;6.738;2022-09-09T01:15:57;14.70;99.90
59075;DHT22;44860;53.020;6.738;2022-09-09T01:18:29;14.70;99.90
59075;DHT22;44860;53.020;6.738;2022-09-09T01:23:47;14.60;99.90
59075;DHT22;44860;53.020;6.738;2022-09-09T01:26:42;14.60;99.90
59075;DHT22;44860;53.020;6.738;2022-09-09T01:29:10;14.60;99.90
59075;DHT22;44860;53.020;6.738;2022-09-09T01:31:40;14.60;99.90
59075;DHT22;44860;53.020;6.738;2022-09-09T01:34:15;14.60;99.90
59075;DHT22;44860;53.020;6.738;2022-09-09T01:39:16;14.50;99.90
59075;DHT22;44860;53.020;6.738;2022-09-09T01:41:42;14.50;99.90
59075;DHT22;44860;53.020;6.738;2022-09-09T01:44:08;14.50;99.90
59075;DHT22;44860;53.020;6.738;2022-09-09T01:46:35;14.50;99.90
59075;DHT22;44860;53.020;6.738;2022-09-09T01:49:03;14.50;99.90
59075;DHT22;44860;53.020;6.738;2022-09-09T01:51:29;14.60;99.90
59075;DHT22;44860;53.020;6.738;2022-09-09T01:53:55;14.60;99.90
59075;DHT22;44860;53.020;6.738;2022-09-09T01:56:25;14.60;99.90
59075;DHT22;44860;53.020;6.738;2022-09-09T02:06:52;14.60;99.90
59075;DHT22;44860;53.020;6.738;2022-09-09T02:09:22;14.60;99.90
59075;DHT22;44860;53.020;6.738;2022-09-09T02:11:55;14.60;99.90
59075;DHT22;44860;53.020;6.738;2022-09-09T02:14:29;14.60;99.90
59075;DHT22;44860;53.020;6.738;2022-09-09T02:17:03;14.70;99.90
59075;DHT22;44860;53.020;6.738;2022-09-09T02:19:35;14.70;99.90
59075;DHT22;44860;53.020;6.738;2022-09-09T02:22:02;14.70;99.90
59075;DHT22;44860;53.020;6.738;2022-09-09T02:24:34;14.70;99.90
59075;DHT22;44860;53.020;6.738;2022-09-09T02:27:03;14.70;99.90
59075;DHT22;44860;53.020;6.738;2022-09-09T02:29:38;14.70;99.90
59075;DHT22;44860;53.020;6.738;2022-09-09T02:32:14;14.70;99.90
59075;DHT22;44860;53.020;6.738;2022-09-09T02:34:45;14.70;99.90
59075;DHT22;44860;53.020;6.738;2022-09-09T02:37:16;14.70;99.90
59075;DHT22;44860;53.020;6.738;2022-09-09T02:39:43;14.70;99.90
59075;DHT22;44860;53.020;6.738;2022-09-09T02:42:08;14.70;99.90
59075;DHT22;44860;53.020;6.738;2022-09-09T02:44:35;14.70;99.90
59075;DHT22;44860;53.020;6.738;2022-09-09T02:50:20;14.80;99.90
59075;DHT22;44860;53.020;6.738;2022-09-09T02:55:36;14.80;99.90
59075;DHT22;44860;53.020;6.738;2022-09-09T02:58:05;14.80;99.90
59075;DHT22;44860;53.020;6.738;2022-09-09T03:00:33;14.70;99.90
59075;DHT22;44860;53.020;6.738;2022-09-09T03:03:02;14.80;99.90
59075;DHT22;44860;53.020;6.738;2022-09-09T03:05:28;14.80;99.90
59075;DHT22;44860;53.020;6.738;2022-09-09T03:07:54;14.80;99.90
59075;DHT22;44860;53.020;6.738;2022-09-09T03:10:19;14.80;99.90
59075;DHT22;44860;53.020;6.738;2022-09-09T03:12:45;14.80;99.90
59075;DHT22;44860;53.020;6.738;2022-09-09T03:15:11;14.90;99.90
59075;DHT22;44860;53.020;6.738;2022-09-09T03:17:37;14.80;99.90
59075;DHT22;44860;53.020;6.738;2022-09-09T03:20:03;14.80;99.90
59075;DHT22;44860;53.020;6.738;2022-09-09T03:22:29;14.90;99.90
59075;DHT22;44860;53.020;6.738;2022-09-09T03:24:55;14.80;99.90
59075;DHT22;44860;53.020;6.738;2022-09-09T03:27:20;14.80;99.90
59075;DHT22;44860;53.020;6.738;2022-09-09T03:29:46;14.90;99.90
59075;DHT22;44860;53.020;6.738;2022-09-09T03:32:12;14.90;99.90
59075;DHT22;44860;53.020;6.738;2022-09-09T03:34:38;14.80;99.90
59075;DHT22;44860;53.020;6.738;2022-09-09T03:37:07;14.90;99.90
59075;DHT22;44860;53.020;6.738;2022-09-09T03:39:33;14.90;99.90
59075;DHT22;44860;53.020;6.738;2022-09-09T03:41:58;14.90;99.90
59075;DHT22;44860;53.020;6.738;2022-09-09T03:44:24;14.90;99.90
59075;DHT22;44860;53.020;6.738;2022-09-09T03:46:50;14.90;99.90
59075;DHT22;44860;53.020;6.738;2022-09-09T03:49:15;14.80;99.90
59075;DHT22;44860;53.020;6.738;2022-09-09T03:51:42;14.90;99.90
59075;DHT22;44860;53.020;6.738;2022-09-09T03:54:07;14.90;99.90
59075;DHT22;44860;53.020;6.738;2022-09-09T03:56:35;14.90;99.90
59075;DHT22;44860;53.020;6.738;2022-09-09T03:59:01;14.90;99.90
59075;DHT22;44860;53.020;6.738;2022-09-09T04:01:28;14.90;99.90
59075;DHT22;44860;53.020;6.738;2022-09-09T04:03:54;14.90;99.90
59075;DHT22;44860;53.020;6.738;2022-09-09T04:06:23;14.90;99.90
59075;DHT22;44860;53.020;6.738;2022-09-09T04:08:49;14.90;99.90
59075;DHT22;44860;53.020;6.738;2022-09-09T04:11:15;14.90;99.90
59075;DHT22;44860;53.020;6.738;2022-09-09T04:13:41;14.90;99.90
59075;DHT22;44860;53.020;6.738;2022-09-09T04:16:09;14.90;99.90
59075;DHT22;44860;53.020;6.738;2022-09-09T04:18:35;14.90;99.90
59075;DHT22;44860;53.020;6.738;2022-09-09T04:21:01;14.90;99.90
59075;DHT22;44860;53.020;6.738;2022-09-09T04:23:28;14.90;99.90
59075;DHT22;44860;53.020;6.738;2022-09-09T04:25:56;14.90;99.90
59075;DHT22;44860;53.020;6.738;2022-09-09T04:28:23;14.80;99.90
59075;DHT22;44860;53.020;6.738;2022-09-09T04:30:50;14.80;99.90
59075;DHT22;44860;53.020;6.738;2022-09-09T04:33:16;14.80;99.90
59075;DHT22;44860;53.020;6.738;2022-09-09T04:35:47;14.80;99.90
59075;DHT22;44860;53.020;6.738;2022-09-09T04:38:14;14.80;99.90
59075;DHT22;44860;53.020;6.738;2022-09-09T04:40:43;14.90;99.90
59075;DHT22;44860;53.020;6.738;2022-09-09T04:43:09;14.80;99.90
59075;DHT22;44860;53.020;6.738;2022-09-09T04:45:35;14.80;99.90
59075;DHT22;44860;53.020;6.738;2022-09-09T04:48:01;14.80;99.90
59075;DHT22;44860;53.020;6.738;2022-09-09T04:50:28;14.80;99.90
59075;DHT22;44860;53.020;6.738;2022-09-09T04:52:54;14.80;99.90
59075;DHT22;44860;53.020;6.738;2022-09-09T04:55:19;14.80;99.90
59075;DHT22;44860;53.020;6.738;2022-09-09T04:57:45;14.80;99.90
59075;DHT22;44860;53.020;6.738;2022-09-09T05:00:12;14.80;99.90
59075;DHT22;44860;53.020;6.738;2022-09-09T05:02:39;14.80;99.90
59075;DHT22;44860;53.020;6.738;2022-09-09T05:05:05;14.80;99.90
59075;DHT22;44860;53.020;6.738;2022-09-09T05:07:31;14.80;99.90
59075;DHT22;44860;53.020;6.738;2022-09-09T05:09:57;14.80;99.90
59075;DHT22;44860;53.020;6.738;2022-09-09T05:12:23;14.70;99.90
59075;DHT22;44860;53.020;6.738;2022-09-09T05:14:51;14.70;99.90
59075;DHT22;44860;53.020;6.738;2022-09-09T05:17:17;14.70;99.90
59075;DHT22;44860;53.020;6.738;2022-09-09T05:19:43;14.70;99.90
59075;DHT22;44860;53.020;6.738;2022-09-09T05:22:10;14.70;99.90
59075;DHT22;44860;53.020;6.738;2022-09-09T05:24:36;14.70;99.90
59075;DHT22;44860;53.020;6.738;2022-09-09T05:27:02;14.70;99.90
59075;DHT22;44860;53.020;6.738;2022-09-09T05:29:28;14.70;99.90
59075;DHT22;44860;53.020;6.738;2022-09-09T05:31:54;14.70;99.90
59075;DHT22;44860;53.020;6.738;2022-09-09T05:34:19;14.70;99.90
59075;DHT22;44860;53.020;6.738;2022-09-09T05:36:46;14.70;99.90
59075;DHT22;44860;53.020;6.738;2022-09-09T05:39:12;14.70;99.90
59075;DHT22;44860;53.020;6.738;2022-09-09T05:41:38;14.70;99.90
59075;DHT22;44860;53.020;6.738;2022-09-09T05:44:04;14.70;99.90
59075;DHT22;44860;53.020;6.738;2022-09-09T05:46:30;14.70;99.90
59075;DHT22;44860;53.020;6.738;2022-09-09T05:48:56;14.70;99.90
59075;DHT22;44860;53.020;6.738;2022-09-09T05:51:26;14.70;99.90
59075;DHT22;44860;53.020;6.738;2022-09-09T05:53:53;14.70;99.90
59075;DHT22;44860;53.020;6.738;2022-09-09T05:56:22;14.70;99.90
59075;DHT22;44860;53.020;6.738;2022-09-09T05:58:49;14.60;99.90
59075;DHT22;44860;53.020;6.738;2022-09-09T06:01:18;14.70;99.90
59075;DHT22;44860;53.020;6.738;2022-09-09T06:03:45;14.70;99.90
59075;DHT22;44860;53.020;6.738;2022-09-09T06:06:16;14.70;99.90
59075;DHT22;44860;53.020;6.738;2022-09-09T06:08:46;14.70;99.90
59075;DHT22;44860;53.020;6.738;2022-09-09T06:11:22;14.70;99.90
59075;DHT22;44860;53.020;6.738;2022-09-09T06:13:49;14.70;99.90
59075;DHT22;44860;53.020;6.738;2022-09-09T06:16:20;14.70;99.90
59075;DHT22;44860;53.020;6.738;2022-09-09T06:18:48;14.70;99.90
59075;DHT22;44860;53.020;6.738;2022-09-09T06:21:28;14.70;99.90
59075;DHT22;44860;53.020;6.738;2022-09-09T06:23:56;14.70;99.90
59075;DHT22;44860;53.020;6.738;2022-09-09T06:26:22;14.70;99.90
59075;DHT22;44860;53.020;6.738;2022-09-09T06:28:50;14.70;99.90
59075;DHT22;44860;53.020;6.738;2022-09-09T06:31:18;14.80;99.90
59075;DHT22;44860;53.020;6.738;2022-09-09T06:33:48;14.80;99.90
59075;DHT22;44860;53.020;6.738;2022-09-09T06:38:47;14.80;99.90
59075;DHT22;44860;53.020;6.738;2022-09-09T06:41:14;14.80;99.90
59075;DHT22;44860;53.020;6.738;2022-09-09T06:43:41;14.90;99.90
59075;DHT22;44860;53.020;6.738;2022-09-09T06:46:10;14.90;99.90
59075;DHT22;44860;53.020;6.738;2022-09-09T06:48:38;14.90;99.90
59075;DHT22;44860;53.020;6.738;2022-09-09T06:51:13;14.90;99.90
59075;DHT22;44860;53.020;6.738;2022-09-09T06:53:41;15.00;99.90
59075;DHT22;44860;53.020;6.738;2022-09-09T06:58:42;15.00;99.90
59075;DHT22;44860;53.020;6.738;2022-09-09T07:01:10;15.00;99.90
59075;DHT22;44860;53.020;6.738;2022-09-09T07:03:38;15.00;99.90
59075;DHT22;44860;53.020;6.738;2022-09-09T07:06:05;15.10;99.90
59075;DHT22;44860;53.020;6.738;2022-09-09T07:08:31;15.10;99.90
59075;DHT22;44860;53.020;6.738;2022-09-09T07:11:04;15.10;99.90
59075;DHT22;44860;53.020;6.738;2022-09-09T07:13:30;15.10;99.90
59075;DHT22;44860;53.020;6.738;2022-09-09T07:16:07;15.10;99.90
59075;DHT22;44860;53.020;6.738;2022-09-09T07:18:33;15.20;99.90
59075;DHT22;44860;53.020;6.738;2022-09-09T07:21:00;15.20;99.90
59075;DHT22;44860;53.020;6.738;2022-09-09T07:23:27;15.30;99.90
59075;DHT22;44860;53.020;6.738;2022-09-09T07:25:53;15.30;99.90
59075;DHT22;44860;53.020;6.738;2022-09-09T07:28:20;15.30;99.90
59075;DHT22;44860;53.020;6.738;2022-09-09T07:30:54;15.40;99.90
59075;DHT22;44860;53.020;6.738;2022-09-09T07:33:20;15.50;99.90
59075;DHT22;44860;53.020;6.738;2022-09-09T07:35:45;15.50;99.90
59075;DHT22;44860;53.020;6.738;2022-09-09T07:38:11;15.60;99.90
59075;DHT22;44860;53.020;6.738;2022-09-09T07:40:37;15.50;99.90
59075;DHT22;44860;53.020;6.738;2022-09-09T07:43:03;15.60;99.90
59075;DHT22;44860;53.020;6.738;2022-09-09T07:45:29;15.60;99.90
59075;DHT22;44860;53.020;6.738;2022-09-09T07:47:55;15.60;99.90
59075;DHT22;44860;53.020;6.738;2022-09-09T07:50:22;15.60;99.90
59075;DHT22;44860;53.020;6.738;2022-09-09T07:52:50;15.60;99.90
59075;DHT22;44860;53.020;6.738;2022-09-09T07:55:15;15.70;99.90
59075;DHT22;44860;53.020;6.738;2022-09-09T07:57:41;15.70;99.90
59075;DHT22;44860;53.020;6.738;2022-09-09T08:00:07;15.70;99.90
59075;DHT22;44860;53.020;6.738;2022-09-09T08:02:33;15.70;99.90
59075;DHT22;44860;53.020;6.738;2022-09-09T08:04:58;15.70;99.90
59075;DHT22;44860;53.020;6.738;2022-09-09T08:07:24;15.80;99.90
59075;DHT22;44860;53.020;6.738;2022-09-09T08:09:50;15.90;99.90
59075;DHT22;44860;53.020;6.738;2022-09-09T08:12:15;15.90;99.90
59075;DHT22;44860;53.020;6.738;2022-09-09T08:14:41;15.90;99.90
59075;DHT22;44860;53.020;6.738;2022-09-09T08:17:07;16.00;99.90
59075;DHT22;44860;53.020;6.738;2022-09-09T08:19:33;16.00;99.90
59075;DHT22;44860;53.020;6.738;2022-09-09T08:22:02;16.10;99.90
59075;DHT22;44860;53.020;6.738;2022-09-09T08:24:28;16.20;99.90
59075;DHT22;44860;53.020;6.738;2022-09-09T08:26:54;16.30;99.90
59075;DHT22;44860;53.020;6.738;2022-09-09T08:29:22;16.40;99.90
59075;DHT22;44860;53.020;6.738;2022-09-09T08:31:49;16.50;99.90
59075;DHT22;44860;53.020;6.738;2022-09-09T08:34:15;16.60;99.90
59075;DHT22;44860;53.020;6.738;2022-09-09T08:36:43;16.60;99.90
59075;DHT22;44860;53.020;6.738;2022-09-09T08:39:10;16.70;99.90
59075;DHT22;44860;53.020;6.738;2022-09-09T08:44:55;16.80;99.90
59075;DHT22;44860;53.020;6.738;2022-09-09T08:50:19;16.90;99.90
59075;DHT22;44860;53.020;6.738;2022-09-09T08:57:59;17.00;99.90
59075;DHT22;44860;53.020;6.738;2022-09-09T09:11:17;17.20;99.90
59075;DHT22;44860;53.020;6.738;2022-09-09T09:13:47;17.20;99.90
59075;DHT22;44860;53.020;6.738;2022-09-09T09:16:27;17.20;99.90
59075;DHT22;44860;53.020;6.738;2022-09-09T09:18:54;17.30;99.90
59075;DHT22;44860;53.020;6.738;2022-09-09T09:21:45;17.30;99.90
59075;DHT22;44860;53.020;6.738;2022-09-09T09:24:37;17.40;99.90
59075;DHT22;44860;53.020;6.738;2022-09-09T09:27:14;17.60;99.90
59075;DHT22;44860;53.020;6.738;2022-09-09T09:29:42;17.70;99.90
59075;DHT22;44860;53.020;6.738;2022-09-09T09:32:13;17.80;99.90
59075;DHT22;44860;53.020;6.738;2022-09-09T09:34:39;17.90;99.90
59075;DHT22;44860;53.020;6.738;2022-09-09T09:37:23;18.00;99.90
59075;DHT22;44860;53.020;6.738;2022-09-09T09:39:53;18.10;99.90
59075;DHT22;44860;53.020;6.738;2022-09-09T09:42:19;18.20;99.90
59075;DHT22;44860;53.020;6.738;2022-09-09T09:44:45;18.30;99.90
59075;DHT22;44860;53.020;6.738;2022-09-09T09:47:21;18.20;99.90
59075;DHT22;44860;53.020;6.738;2022-09-09T09:50:00;18.30;99.90
59075;DHT22;44860;53.020;6.738;2022-09-09T09:52:28;18.20;99.90
59075;DHT22;44860;53.020;6.738;2022-09-09T09:54:56;18.20;99.90
59075;DHT22;44860;53.020;6.738;2022-09-09T09:57:31;18.20;99.90
59075;DHT22;44860;53.020;6.738;2022-09-09T10:00:04;18.30;99.90
59075;DHT22;44860;53.020;6.738;2022-09-09T10:02:40;18.30;99.90
59075;DHT22;44860;53.020;6.738;2022-09-09T10:05:28;18.40;99.90
59075;DHT22;44860;53.020;6.738;2022-09-09T10:08:05;18.60;99.90
59075;DHT22;44860;53.020;6.738;2022-09-09T10:14:21;18.80;99.90
59075;DHT22;44860;53.020;6.738;2022-09-09T10:19:45;18.90;99.90
59075;DHT22;44860;53.020;6.738;2022-09-09T10:30:23;19.10;99.90
59075;DHT22;44860;53.020;6.738;2022-09-09T10:33:09;19.10;99.90
59075;DHT22;44860;53.020;6.738;2022-09-09T10:36:00;19.20;99.90
59075;DHT22;44860;53.020;6.738;2022-09-09T10:38:42;19.20;99.90
59075;DHT22;44860;53.020;6.738;2022-09-09T10:44:30;19.30;99.90
59075;DHT22;44860;53.020;6.738;2022-09-09T10:57:41;19.60;99.90
59075;DHT22;44860;53.020;6.738;2022-09-09T11:00:17;19.60;99.90
59075;DHT22;44860;53.020;6.738;2022-09-09T11:02:43;19.70;99.90
59075;DHT22;44860;53.020;6.738;2022-09-09T11:08:20;19.70;99.90
59075;DHT22;44860;53.020;6.738;2022-09-09T11:14:14;19.80;99.90
59075;DHT22;44860;53.020;6.738;2022-09-09T11:16:49;19.80;99.90
59075;DHT22;44860;53.020;6.738;2022-09-09T11:19:31;19.70;99.90
59075;DHT22;44860;53.020;6.738;2022-09-09T11:22:02;19.70;99.90
59075;DHT22;44860;53.020;6.738;2022-09-09T11:24:42;19.60;99.90
59075;DHT22;44860;53.020;6.738;2022-09-09T11:27:38;19.70;99.90
59075;DHT22;44860;53.020;6.738;2022-09-09T11:38:27;20.00;99.90
59075;DHT22;44860;53.020;6.738;2022-09-09T11:41:02;20.00;99.90
59075;DHT22;44860;53.020;6.738;2022-09-09T11:43:58;20.00;99.90
59075;DHT22;44860;53.020;6.738;2022-09-09T11:46:34;20.00;99.90
59075;DHT22;44860;53.020;6.738;2022-09-09T11:49:27;19.90;99.90
59075;DHT22;44860;53.020;6.738;2022-09-09T11:51:53;19.90;99.90
59075;DHT22;44860;53.020;6.738;2022-09-09T11:54:33;19.90;99.90
59075;DHT22;44860;53.020;6.738;2022-09-09T11:57:25;19.80;99.90
59075;DHT22;44860;53.020;6.738;2022-09-09T11:59:51;19.80;99.90
59075;DHT22;44860;53.020;6.738;2022-09-09T12:02:23;19.90;99.90
59075;DHT22;44860;53.020;6.738;2022-09-09T12:05:09;20.00;99.90
59075;DHT22;44860;53.020;6.738;2022-09-09T12:07:41;20.10;99.90
59075;DHT22;44860;53.020;6.738;2022-09-09T12:10:28;20.10;99.90
59075;DHT22;44860;53.020;6.738;2022-09-09T12:12:55;20.20;99.90
59075;DHT22;44860;53.020;6.738;2022-09-09T12:15:28;20.20;99.90
59075;DHT22;44860;53.020;6.738;2022-09-09T12:17:57;20.20;99.90
59075;DHT22;44860;53.020;6.738;2022-09-09T12:20:30;20.30;99.90
59075;DHT22;44860;53.020;6.738;2022-09-09T12:33:18;20.60;99.90
59075;DHT22;44860;53.020;6.738;2022-09-09T12:35:47;20.80;99.90
59075;DHT22;44860;53.020;6.738;2022-09-09T12:38:32;20.80;99.90
59075;DHT22;44860;53.020;6.738;2022-09-09T12:40:59;20.80;99.90
59075;DHT22;44860;53.020;6.738;2022-09-09T12:43:27;20.90;99.90
59075;DHT22;44860;53.020;6.738;2022-09-09T12:45:59;20.90;99.90
59075;DHT22;44860;53.020;6.738;2022-09-09T12:48:34;21.00;99.90
59075;DHT22;44860;53.020;6.738;2022-09-09T12:51:01;21.00;99.90
59075;DHT22;44860;53.020;6.738;2022-09-09T12:53:36;20.90;99.90
59075;DHT22;44860;53.020;6.738;2022-09-09T12:56:05;20.90;99.90
59075;DHT22;44860;53.020;6.738;2022-09-09T12:58:33;20.80;99.90
59075;DHT22;44860;53.020;6.738;2022-09-09T13:01:01;20.80;99.90
59075;DHT22;44860;53.020;6.738;2022-09-09T13:03:30;20.90;99.90
59075;DHT22;44860;53.020;6.738;2022-09-09T13:06:18;21.00;99.90
59075;DHT22;44860;53.020;6.738;2022-09-09T13:08:44;21.20;99.90
59075;DHT22;44860;53.020;6.738;2022-09-09T13:11:14;21.30;99.90
59075;DHT22;44860;53.020;6.738;2022-09-09T13:13:43;21.40;99.90
59075;DHT22;44860;53.020;6.738;2022-09-09T13:16:22;21.40;99.90
59075;DHT22;44860;53.020;6.738;2022-09-09T13:18:48;21.30;99.90
59075;DHT22;44860;53.020;6.738;2022-09-09T13:21:15;21.30;99.90
59075;DHT22;44860;53.020;6.738;2022-09-09T13:23:41;21.20;99.90
59075;DHT22;44860;53.020;6.738;2022-09-09T13:26:24;21.10;99.90
59075;DHT22;44860;53.020;6.738;2022-09-09T13:28:54;21.10;99.90
59075;DHT22;44860;53.020;6.738;2022-09-09T13:31:28;20.90;99.90
59075;DHT22;44860;53.020;6.738;2022-09-09T13:33:54;20.70;99.90
59075;DHT22;44860;53.020;6.738;2022-09-09T13:36:31;20.60;99.90
59075;DHT22;44860;53.020;6.738;2022-09-09T13:38:58;20.40;99.90
59075;DHT22;44860;53.020;6.738;2022-09-09T13:41:36;20.10;99.90
59075;DHT22;44860;53.020;6.738;2022-09-09T13:44:03;20.00;99.90
59075;DHT22;44860;53.020;6.738;2022-09-09T13:46:40;20.00;99.90
59075;DHT22;44860;53.020;6.738;2022-09-09T13:51:38;20.20;99.90
59075;DHT22;44860;53.020;6.738;2022-09-09T13:54:06;20.40;99.90
59075;DHT22;44860;53.020;6.738;2022-09-09T13:56:36;20.50;99.90
59075;DHT22;44860;53.020;6.738;2022-09-09T13:59:04;20.80;99.90
59075;DHT22;44860;53.020;6.738;2022-09-09T14:01:30;20.80;99.90
59075;DHT22;44860;53.020;6.738;2022-09-09T14:03:56;20.90;99.90
59075;DHT22;44860;53.020;6.738;2022-09-09T14:06:22;20.90;99.90
59075;DHT22;44860;53.020;6.738;2022-09-09T14:08:52;20.90;99.90
59075;DHT22;44860;53.020;6.738;2022-09-09T14:11:18;20.90;99.90
59075;DHT22;44860;53.020;6.738;2022-09-09T14:13:44;20.80;99.90
59075;DHT22;44860;53.020;6.738;2022-09-09T14:16:09;20.80;99.90
59075;DHT22;44860;53.020;6.738;2022-09-09T14:18:35;20.80;99.90
59075;DHT22;44860;53.020;6.738;2022-09-09T14:21:02;20.70;99.90
59075;DHT22;44860;53.020;6.738;2022-09-09T14:23:28;20.80;99.90
59075;DHT22;44860;53.020;6.738;2022-09-09T14:25:54;20.70;99.90
59075;DHT22;44860;53.020;6.738;2022-09-09T14:28:20;20.60;99.90
59075;DHT22;44860;53.020;6.738;2022-09-09T14:30:46;20.60;99.90
59075;DHT22;44860;53.020;6.738;2022-09-09T14:33:15;20.70;99.90
59075;DHT22;44860;53.020;6.738;2022-09-09T14:35:41;20.80;99.90
59075;DHT22;44860;53.020;6.738;2022-09-09T14:38:08;20.80;99.90
59075;DHT22;44860;53.020;6.738;2022-09-09T14:40:36;20.90;99.90
59075;DHT22;44860;53.020;6.738;2022-09-09T14:43:02;20.90;99.90
59075;DHT22;44860;53.020;6.738;2022-09-09T14:45:28;20.90;99.90
59075;DHT22;44860;53.020;6.738;2022-09-09T14:47:54;20.90;99.90
59075;DHT22;44860;53.020;6.738;2022-09-09T14:50:22;20.90;99.90
59075;DHT22;44860;53.020;6.738;2022-09-09T14:52:48;20.80;99.90
59075;DHT22;44860;53.020;6.738;2022-09-09T14:55:14;20.70;99.90
59075;DHT22;44860;53.020;6.738;2022-09-09T14:57:41;20.70;99.90
59075;DHT22;44860;53.020;6.738;2022-09-09T15:00:08;20.50;99.90
59075;DHT22;44860;53.020;6.738;2022-09-09T15:02:34;20.50;99.90
59075;DHT22;44860;53.020;6.738;2022-09-09T15:05:00;20.40;99.90
59075;DHT22;44860;53.020;6.738;2022-09-09T15:07:27;20.40;99.90
59075;DHT22;44860;53.020;6.738;2022-09-09T15:09:54;20.40;99.90
59075;DHT22;44860;53.020;6.738;2022-09-09T15:12:20;20.50;99.90
59075;DHT22;44860;53.020;6.738;2022-09-09T15:14:46;20.50;99.90
59075;DHT22;44860;53.020;6.738;2022-09-09T15:17:13;20.60;99.90
59075;DHT22;44860;53.020;6.738;2022-09-09T15:19:39;20.80;99.90
59075;DHT22;44860;53.020;6.738;2022-09-09T15:22:05;20.90;99.90
59075;DHT22;44860;53.020;6.738;2022-09-09T15:24:34;21.00;99.90
59075;DHT22;44860;53.020;6.738;2022-09-09T15:27:01;21.10;99.90
59075;DHT22;44860;53.020;6.738;2022-09-09T15:29:27;21.10;99.90
59075;DHT22;44860;53.020;6.738;2022-09-09T15:31:56;21.20;99.90
59075;DHT22;44860;53.020;6.738;2022-09-09T15:34:22;21.20;99.90
59075;DHT22;44860;53.020;6.738;2022-09-09T15:36:48;21.20;99.90
59075;DHT22;44860;53.020;6.738;2022-09-09T15:39:17;21.10;99.90
59075;DHT22;44860;53.020;6.738;2022-09-09T15:41:47;21.10;99.90
59075;DHT22;44860;53.020;6.738;2022-09-09T15:44:14;21.00;99.90
59075;DHT22;44860;53.020;6.738;2022-09-09T15:46:42;21.00;99.90
59075;DHT22;44860;53.020;6.738;2022-09-09T15:51:40;21.10;99.90
59075;DHT22;44860;53.020;6.738;2022-09-09T15:54:09;21.10;99.90
59075;DHT22;44860;53.020;6.738;2022-09-09T15:56:34;21.00;99.90
59075;DHT22;44860;53.020;6.738;2022-09-09T15:59:02;20.90;99.90
59075;DHT22;44860;53.020;6.738;2022-09-09T16:01:29;20.90;99.90
59075;DHT22;44860;53.020;6.738;2022-09-09T16:03:57;20.90;99.90
59075;DHT22;44860;53.020;6.738;2022-09-09T16:06:24;20.90;99.90
59075;DHT22;44860;53.020;6.738;2022-09-09T16:08:51;20.80;99.90
59075;DHT22;44860;53.020;6.738;2022-09-09T16:11:20;20.70;99.90
59075;DHT22;44860;53.020;6.738;2022-09-09T16:13:48;20.50;99.90
59075;DHT22;44860;53.020;6.738;2022-09-09T16:16:15;20.50;99.90
59075;DHT22;44860;53.020;6.738;2022-09-09T16:18:46;20.40;99.90
59075;DHT22;44860;53.020;6.738;2022-09-09T16:21:17;20.30;99.90
59075;DHT22;44860;53.020;6.738;2022-09-09T16:23:44;20.10;99.90
59075;DHT22;44860;53.020;6.738;2022-09-09T16:26:14;20.00;99.90
59075;DHT22;44860;53.020;6.738;2022-09-09T16:28:40;19.90;99.90
59075;DHT22;44860;53.020;6.738;2022-09-09T16:31:08;19.80;99.90
59075;DHT22;44860;53.020;6.738;2022-09-09T16:33:35;19.80;99.90
59075;DHT22;44860;53.020;6.738;2022-09-09T16:36:27;19.70;99.90
59075;DHT22;44860;53.020;6.738;2022-09-09T16:39:01;19.60;99.90
59075;DHT22;44860;53.020;6.738;2022-09-09T16:41:28;19.60;99.90
59075;DHT22;44860;53.020;6.738;2022-09-09T16:43:56;19.50;99.90
59075;DHT22;44860;53.020;6.738;2022-09-09T16:46:22;19.40;99.90
59075;DHT22;44860;53.020;6.738;2022-09-09T16:48:50;19.30;99.90
59075;DHT22;44860;53.020;6.738;2022-09-09T16:51:27;19.20;99.90
59075;DHT22;44860;53.020;6.738;2022-09-09T16:53:54;19.20;99.90
59075;DHT22;44860;53.020;6.738;2022-09-09T16:56:22;19.10;99.90
59075;DHT22;44860;53.020;6.738;2022-09-09T16:58:55;19.10;99.90
59075;DHT22;44860;53.020;6.738;2022-09-09T17:01:33;19.10;99.90
59075;DHT22;44860;53.020;6.738;2022-09-09T17:04:01;19.00;99.90
59075;DHT22;44860;53.020;6.738;2022-09-09T17:06:29;19.10;99.90
59075;DHT22;44860;53.020;6.738;2022-09-09T17:09:00;19.00;99.90
59075;DHT22;44860;53.020;6.738;2022-09-09T17:11:27;18.90;99.90
59075;DHT22;44860;53.020;6.738;2022-09-09T17:13:54;19.00;99.90
59075;DHT22;44860;53.020;6.738;2022-09-09T17:16:22;19.00;99.90
59075;DHT22;44860;53.020;6.738;2022-09-09T17:18:49;18.90;99.90
59075;DHT22;44860;53.020;6.738;2022-09-09T17:21:18;18.90;99.90
59075;DHT22;44860;53.020;6.738;2022-09-09T17:23:44;18.90;99.90
59075;DHT22;44860;53.020;6.738;2022-09-09T17:26:12;18.90;99.90
59075;DHT22;44860;53.020;6.738;2022-09-09T17:28:39;18.80;99.90
59075;DHT22;44860;53.020;6.738;2022-09-09T17:31:06;18.80;99.90
59075;DHT22;44860;53.020;6.738;2022-09-09T17:33:38;18.80;99.90
59075;DHT22;44860;53.020;6.738;2022-09-09T17:36:19;18.80;99.90
59075;DHT22;44860;53.020;6.738;2022-09-09T17:38:45;18.80;99.90
59075;DHT22;44860;53.020;6.738;2022-09-09T17:41:21;18.70;99.90
59075;DHT22;44860;53.020;6.738;2022-09-09T17:43:49;18.60;99.90
59075;DHT22;44860;53.020;6.738;2022-09-09T17:46:16;18.60;99.90
59075;DHT22;44860;53.020;6.738;2022-09-09T17:48:43;18.60;99.90
59075;DHT22;44860;53.020;6.738;2022-09-09T17:51:13;18.50;99.90
59075;DHT22;44860;53.020;6.738;2022-09-09T17:53:41;18.50;99.90